Terminal Aerodrome Forecast
Issued by NWS

Home | Current Version | Previous Version | Text Only | Print | Product List | Glossary Off
Versions: 1 2 3 4 5 6 7 8 9 10 11 12 13 14 15 16 17 18 19 20 21 22 23 24 25 26 27 28 29 30

000
FTUS43 KTOP 241100
TAFMHK
TAF
KMHK 241134Z 2412/2512 09014G23KT P6SM -DZ SCT025 OVC045
     FM241300 07012KT 6SM -DZ BR SCT015 OVC020
      TEMPO 2415/2419 3SM -TSRA BKN014 OVC020CB
     FM241900 32007KT 6SM BR SCT018 OVC020
     FM250000 VRB03KT P6SM FEW025 SCT150=

USA.gov is the U.S. government's official web portal to all federal, state and local government web resources and services.